Time;durP1;ratioP1;P1;durP2;ratioP2;P2;SDS_P1;SDS_P2;PMS_P1;PMS_P2;Temp;Humidity;BMP_temperature;BMP_pressure;BME280_temperature;BME280_humidity;BME280_pressure;Samples;Min_cycle;Max_cycle;Signal;HPM_P1;HPM_P2
2022/05/29 00:02:08;;;;;;;14.93;3.97;;;;;;;;;;5064395;28;20033;-74
2022/05/29 00:04:35;;;;;;;13.65;2.83;;;;;;;;;;5071620;28;20139;-74
2022/05/29 00:07:01;;;;;;;19.25;3.63;;;;;;;;;;5072512;28;20041;-74
2022/05/29 00:09:37;;;;;;;12.05;2.67;;;;;;;;;;5064819;28;20028;-74
2022/05/29 00:12:05;;;;;;;18.60;3.30;;;;;;;;;;5062916;28;20236;-74
2022/05/29 00:14:31;;;;;;;19.70;3.60;;;;;;;;;;5071523;28;20032;-74
2022/05/29 00:16:58;;;;;;;18.35;3.83;;;;;;;;;;5064576;28;20028;-74
2022/05/29 00:19:25;;;;;;;20.35;3.35;;;;;;;;;;5051609;28;20035;-74
2022/05/29 00:21:51;;;;;;;21.63;3.85;;;;;;;;;;5061348;28;20499;-74
2022/05/29 00:24:17;;;;;;;15.25;2.83;;;;;;;;;;5054379;28;20040;-74
2022/05/29 00:26:43;;;;;;;20.83;4.07;;;;;;;;;;5064124;28;20169;-74
2022/05/29 00:29:09;;;;;;;19.60;2.92;;;;;;;;;;5082046;28;20453;-74
2022/05/29 00:31:35;;;;;;;16.45;3.35;;;;;;;;;;5064586;28;20041;-73
2022/05/29 00:34:02;;;;;;;15.60;3.30;;;;;;;;;;5067121;28;20037;-74
2022/05/29 00:36:32;;;;;;;15.13;2.58;;;;;;;;;;5061351;28;20021;-74
2022/05/29 00:38:58;;;;;;;18.10;2.72;;;;;;;;;;5084932;28;20056;-74
2022/05/29 00:41:28;;;;;;;13.40;2.80;;;;;;;;;;5079636;28;20044;-74
2022/05/29 00:44:14;;;;;;;8.80;2.50;;;;;;;;;;5072940;28;20032;-74
2022/05/29 00:47:00;;;;;;;14.05;2.60;;;;;;;;;;5052471;28;20033;-74
2022/05/29 00:49:28;;;;;;;14.45;3.47;;;;;;;;;;5066935;28;20491;-74
2022/05/29 00:52:21;;;;;;;13.02;2.60;;;;;;;;;;5063935;28;20492;-74
2022/05/29 00:54:53;;;;;;;12.75;2.47;;;;;;;;;;5073726;28;20044;-74
2022/05/29 00:57:30;;;;;;;8.07;2.15;;;;;;;;;;5075321;28;20028;-74
2022/05/29 00:59:58;;;;;;;15.05;2.67;;;;;;;;;;5084999;28;20040;-74
2022/05/29 01:02:24;;;;;;;10.77;2.95;;;;;;;;;;5066016;28;20076;-74
2022/05/29 01:04:50;;;;;;;11.57;2.85;;;;;;;;;;5065644;28;20480;-74
2022/05/29 01:07:18;;;;;;;10.82;2.53;;;;;;;;;;5073537;28;20082;-74
2022/05/29 01:09:46;;;;;;;13.95;2.50;;;;;;;;;;5069483;28;20055;-74
2022/05/29 01:12:17;;;;;;;15.82;3.08;;;;;;;;;;5064358;28;20071;-74
2022/05/29 01:15:03;;;;;;;17.90;2.90;;;;;;;;;;5081062;28;20032;-74
2022/05/29 01:17:48;;;;;;;15.15;3.03;;;;;;;;;;5055440;28;20291;-73
2022/05/29 01:20:20;;;;;;;15.10;3.20;;;;;;;;;;5066671;28;20046;-74
2022/05/29 01:22:49;;;;;;;13.93;3.13;;;;;;;;;;5063533;28;20064;-73
2022/05/29 01:25:24;;;;;;;10.45;3.10;;;;;;;;;;5080868;28;20302;-73
2022/05/29 01:28:08;;;;;;;12.73;2.92;;;;;;;;;;5068267;28;20499;-74
2022/05/29 01:30:37;;;;;;;5.95;1.85;;;;;;;;;;5074278;28;20103;-74
2022/05/29 01:33:12;;;;;;;12.38;2.75;;;;;;;;;;5070863;28;20037;-73
2022/05/29 01:36:26;;;;;;;18.23;3.58;;;9.90;99.90;;;;;;5092279;28;20487;-74
2022/05/29 01:38:58;;;;;;;9.35;2.30;;;;;;;;;;5004382;28;20056;-74
2022/05/29 01:41:37;;;;;;;13.73;2.60;;;;;;;;;;5069276;28;20342;-73
2022/05/29 01:44:10;;;;;;;12.88;2.30;;;;;;;;;;5057142;28;20032;-74
2022/05/29 01:46:36;;;;;;;15.20;4.93;;;;;;;;;;5066866;28;20545;-74
2022/05/29 01:49:05;;;;;;;13.77;3.20;;;;;;;;;;5068745;28;20036;-71
2022/05/29 01:51:44;;;;;;;10.75;2.42;;;;;;;;;;5063144;28;20428;-75
2022/05/29 01:54:13;;;;;;;12.07;2.75;;;;;;;;;;5080463;28;20391;-74
2022/05/29 01:56:45;;;;;;;14.70;3.33;;;;;;;;;;5076281;28;20032;-74
2022/05/29 01:59:14;;;;;;;13.40;2.30;;;;;;;;;;5076193;28;20059;-74
2022/05/29 02:01:43;;;;;;;16.85;3.67;;;;;;;;;;5063411;28;20362;-74
2022/05/29 02:04:10;;;;;;;17.52;2.47;;;;;;;;;;5063742;28;20438;-74
2022/05/29 02:09:25;;;;;;;13.48;2.55;;;;;;;;;;5069778;28;20047;-74
2022/05/29 02:11:53;;;;;;;10.77;2.38;;;;;;;;;;5067841;28;20040;-74
2022/05/29 02:14:22;;;;;;;15.90;2.65;;;;;;;;;;5082933;28;20052;-75
2022/05/29 02:16:54;;;;;;;11.77;2.65;;;;;;;;;;5079459;28;20204;-75
2022/05/29 02:19:26;;;;;;;17.65;3.10;;;;;;;;;;5073827;28;20037;-75
2022/05/29 02:22:13;;;;;;;16.30;3.28;;;;;;;;;;5073211;28;20033;-74
2022/05/29 02:24:59;;;;;;;10.85;2.55;;;;;;;;;;5062604;28;20041;-75
2022/05/29 02:27:28;;;;;;;20.90;2.83;;;;;;;;;;5066572;28;20491;-75
2022/05/29 02:29:55;;;;;;;15.52;2.80;;;;;;;;;;5093182;28;20028;-75
2022/05/29 02:32:36;;;;;;;12.68;2.65;;;;;;;;;;5075201;28;20024;-75
2022/05/29 02:35:16;;;;;;;12.98;2.20;;;;;;;;;;5068231;28;20033;-74
2022/05/29 02:37:48;;;;;;;12.68;3.28;;;;;;;;;;5056746;28;20025;-75
2022/05/29 02:40:20;;;;;;;10.18;2.33;;;;;;;;;;5070193;28;20456;-75
2022/05/29 02:42:55;;;;;;;12.20;3.17;;;;;;;;;;5071681;28;20036;-75
2022/05/29 02:45:29;;;;;;;20.30;3.35;;;;;;;;;;5074267;28;20032;-74
2022/05/29 02:47:58;;;;;;;13.45;2.40;;;;;;;;;;5072363;28;20131;-75
2022/05/29 02:50:30;;;;;;;15.18;2.63;;;;;;;;;;5072823;28;20037;-75
2022/05/29 02:52:59;;;;;;;12.65;3.33;;;;;;;;;;5072595;28;20028;-75
2022/05/29 02:55:25;;;;;;;12.98;2.63;;;;;;;;;;5058050;28;20113;-75
2022/05/29 02:57:54;;;;;;;13.93;3.22;;;;;;;;;;5062378;28;20016;-74
2022/05/29 03:00:20;;;;;;;18.50;2.90;;;;;;;;;;5072461;28;20112;-75
2022/05/29 03:02:46;;;;;;;14.68;2.97;;;;;;;;;;5069103;28;20109;-75
2022/05/29 03:05:31;;;;;;;9.43;2.25;;;;;;;;;;5072275;28;20070;-75
2022/05/29 03:08:09;;;;;;;9.48;1.95;;;;;;;;;;5052416;28;20067;-75
2022/05/29 03:10:38;;;;;;;18.10;3.55;;;;;;;;;;5073805;28;20051;-75
2022/05/29 03:13:04;;;;;;;8.30;2.42;;;;;;;;;;5065092;28;20076;-75
2022/05/29 03:15:36;;;;;;;11.60;2.17;;;;;;;;;;5068254;28;20059;-75
2022/05/29 03:18:08;;;;;;;7.85;1.30;;;;;;;;;;5073336;28;20027;-74
2022/05/29 03:20:41;;;;;;;9.32;1.70;;;;;;;;;;5071288;28;20032;-74
2022/05/29 03:23:18;;;;;;;6.40;1.60;;;;;;;;;;5070626;28;20083;-75
2022/05/29 03:25:46;;;;;;;8.20;1.58;;;;;;;;;;5069835;28;20082;-75
2022/05/29 03:28:20;;;;;;;7.20;1.50;;;;;;;;;;5082793;28;20028;-75
2022/05/29 03:30:46;;;;;;;15.15;2.47;;;;;;;;;;5045890;28;20025;-75
2022/05/29 03:33:14;;;;;;;11.85;2.28;;;;;;;;;;5078076;28;20543;-74
2022/05/29 03:35:52;;;;;;;5.20;2.10;;;;;;;;;;5070584;28;20036;-74
2022/05/29 03:38:18;;;;;;;12.23;2.72;;;;;;;;;;5067209;28;20059;-74
2022/05/29 03:40:44;;;;;;;17.05;2.22;;;;;;;;;;5066057;28;20060;-74
2022/05/29 03:43:10;;;;;;;16.58;2.40;;;;;;;;;;5070674;28;20371;-74
2022/05/29 03:45:36;;;;;;;13.38;2.97;;;;;;;;;;5079004;28;20099;-75
2022/05/29 03:48:02;;;;;;;20.48;2.97;;;;;;;;;;5059065;28;20021;-74
2022/05/29 03:50:29;;;;;;;11.25;1.92;;;;;;;;;;5059470;28;20039;-74
2022/05/29 03:52:55;;;;;;;11.77;2.03;;;;;;;;;;5073060;28;20036;-75
2022/05/29 03:55:24;;;;;;;11.38;2.13;;;;;;;;;;5077655;28;20043;-74
2022/05/29 03:57:50;;;;;;;11.45;2.30;;;;;;;;;;5056880;28;20025;-75
2022/05/29 04:00:17;;;;;;;13.82;2.10;;;;;;;;;;5067604;28;20033;-75
2022/05/29 04:02:45;;;;;;;14.15;2.00;;;;;;;;;;5066265;28;20047;-75
2022/05/29 04:05:16;;;;;;;12.18;1.75;;;;;;;;;;5063335;28;20057;-75
2022/05/29 04:13:11;;;;;;;11.40;2.25;;;;;;;;;;5055570;28;20052;-75
2022/05/29 04:15:44;;;;;;;15.57;2.40;;;;;;;;;;5056267;28;20098;-75
2022/05/29 04:18:10;;;;;;;13.18;2.10;;;;;;;;;;5072206;28;20056;-75
2022/05/29 04:20:36;;;;;;;16.20;2.17;;;;;;;;;;5068829;28;20068;-75
2022/05/29 04:23:02;;;;;;;16.30;3.30;;;;;;;;;;5060563;28;20044;-76
2022/05/29 04:25:29;;;;;;;12.07;1.67;;;;;;;;;;5059859;28;20032;-76
2022/05/29 04:27:54;;;;;;;16.45;2.72;;;;;;;;;;5070175;28;20474;-76
2022/05/29 04:30:20;;;;;;;16.10;2.78;;;;;;;;;;5073035;28;20024;-76
2022/05/29 04:32:59;;;;;;;12.82;2.58;;;;;;;;;;5081349;28;20115;-76
2022/05/29 04:35:25;;;;;;;10.05;2.00;;;;;;;;;;5067443;28;20175;-76
2022/05/29 04:37:51;;;;;;;12.18;2.75;;;;;;;;;;5063402;28;20028;-76
2022/05/29 04:40:17;;;;;;;16.60;2.30;;;;;;;;;;5069107;28;20056;-76
2022/05/29 04:42:43;;;;;;;11.73;2.28;;;;;;;;;;5078560;28;20101;-76
2022/05/29 04:45:10;;;;;;;14.57;1.67;;;;;;;;;;5056511;28;20033;-76
2022/05/29 04:47:35;;;;;;;12.15;1.92;;;;;;;;;;5065548;28;20052;-76
2022/05/29 04:50:02;;;;;;;17.08;1.80;;;;;;;;;;5057342;28;20135;-75
2022/05/29 04:52:29;;;;;;;9.05;2.20;;;;;;;;;;5072386;28;20056;-75
2022/05/29 04:54:56;;;;;;;10.95;2.72;;;;;;;;;;5068672;28;20426;-75
2022/05/29 04:57:22;;;;;;;8.50;1.45;;;;;;;;;;5064454;28;20087;-75
2022/05/29 04:59:48;;;;;;;8.88;1.25;;;;;;;;;;5068874;28;20059;-75
2022/05/29 05:02:14;;;;;;;8.00;1.65;;;;;;;;;;5069598;28;20047;-75
2022/05/29 05:04:40;;;;;;;11.05;1.92;;;;;;;;;;5065412;28;20063;-75
2022/05/29 05:07:06;;;;;;;10.65;2.13;;;;;;;;;;5065703;28;20029;-75
2022/05/29 05:09:32;;;;;;;14.35;2.38;;;;;;;;;;5071244;28;20063;-76
2022/05/29 05:11:58;;;;;;;10.60;1.65;;;;;;;;;;5070489;28;20046;-75
2022/05/29 05:14:26;;;;;;;10.10;1.90;;;;;;;;;;5071551;28;20037;-75
2022/05/29 05:16:54;;;;;;;18.75;2.58;;;;;;;;;;5071851;28;20024;-75
2022/05/29 05:19:21;;;;;;;13.45;2.03;;;;;;;;;;5074524;28;20056;-79
2022/05/29 05:21:48;;;;;;;14.27;2.50;;;;;;;;;;5070892;28;20028;-76
2022/05/29 05:24:14;;;;;;;11.82;2.35;;;;;;;;;;5069399;28;20032;-75
2022/05/29 05:26:41;;;;;;;12.95;2.97;;;;;;;;;;5074688;28;20486;-75
2022/05/29 05:29:07;;;;;;;19.88;3.20;;;;;;;;;;5066626;28;20025;-76
2022/05/29 05:31:33;;;;;;;17.08;2.05;;;;;;;;;;5065135;28;20108;-75
2022/05/29 05:34:00;;;;;;;10.75;1.65;;;;;;;;;;5067731;28;20041;-75
2022/05/29 05:36:26;;;;;;;13.45;1.85;;;;;;;;;;5065159;28;20029;-75
2022/05/29 05:38:53;;;;;;;18.25;3.88;;;;;;;;;;5083019;28;20048;-73
2022/05/29 05:41:20;;;;;;;17.63;5.38;;;;;;;;;;5081955;28;20028;-73
2022/05/29 05:43:46;;;;;;;14.55;2.60;;;;;;;;;;5073462;28;20138;-75
2022/05/29 05:46:13;;;;;;;11.75;1.88;;;;;;;;;;5067581;28;20028;-75
2022/05/29 05:48:39;;;;;;;10.23;2.33;;;;;;;;;;5092504;28;20028;-75
2022/05/29 05:51:06;;;;;;;12.05;1.90;;;;;;;;;;5065021;28;20181;-75
2022/05/29 05:53:32;;;;;;;10.93;1.95;;;;;;;;;;5066650;28;20024;-76
2022/05/29 05:55:58;;;;;;;12.75;2.47;;;;;;;;;;5055746;28;20031;-74
2022/05/29 05:58:24;;;;;;;15.63;2.78;;;;;;;;;;5073498;28;20028;-74
2022/05/29 06:00:51;;;;;;;12.73;2.30;;;;;;;;;;5072500;28;20032;-75
2022/05/29 06:03:17;;;;;;;12.50;2.38;;;;;;;;;;5071713;28;20143;-75
2022/05/29 06:05:43;;;;;;;14.50;2.35;;;;;;;;;;5071218;28;20052;-75
2022/05/29 06:08:09;;;;;;;13.35;2.03;;;;;;;;;;5056425;28;20042;-75
2022/05/29 06:10:35;;;;;;;13.95;2.80;;;;;;;;;;5078947;28;20632;-76
2022/05/29 06:13:02;;;;;;;14.52;2.45;;;;;;;;;;5071426;28;20078;-75
2022/05/29 06:15:28;;;;;;;10.55;1.92;;;;;;;;;;5064295;28;20540;-76
2022/05/29 06:17:54;;;;;;;11.73;1.73;;;;;;;;;;5073306;28;20058;-76
2022/05/29 06:20:20;;;;;;;14.80;2.28;;;;;;;;;;5077929;28;20054;-74
2022/05/29 06:22:47;;;;;;;10.77;3.10;;;;;;;;;;5077675;28;20059;-76
2022/05/29 06:25:13;;;;;;;10.65;2.80;;;;;;;;;;5083720;28;20035;-74
2022/05/29 06:27:40;;;;;;;16.15;3.35;;;;;;;;;;5066737;28;20419;-76
2022/05/29 06:30:07;;;;;;;17.00;2.13;;;;;;;;;;5069890;28;20044;-75
2022/05/29 06:32:34;;;;;;;13.80;2.47;;;;;;;;;;5072109;28;20032;-76
2022/05/29 06:35:00;;;;;;;11.90;2.15;;;;;;;;;;5076040;28;20509;-76
2022/05/29 06:37:26;;;;;;;12.85;2.63;;;;;;;;;;5071888;28;20107;-75
2022/05/29 06:39:52;;;;;;;14.70;2.15;;;;;;;;;;5072372;28;20099;-75
2022/05/29 06:42:18;;;;;;;14.73;2.70;;;;;;;;;;5042695;28;20036;-75
2022/05/29 06:44:44;;;;;;;14.93;2.63;;;;;;;;;;5079859;28;20041;-75
2022/05/29 06:47:11;;;;;;;14.50;1.73;;;;;;;;;;5053470;28;20268;-75
2022/05/29 06:49:37;;;;;;;16.10;2.15;;;;;;;;;;5069070;28;20103;-76
2022/05/29 06:52:07;;;;;;;13.50;2.25;;;;;;;;;;5085038;28;20053;-76
2022/05/29 06:54:33;;;;;;;10.20;1.40;;;;;;;;;;5070915;28;20032;-76
2022/05/29 06:56:59;;;;;;;11.55;1.80;;;;;;;;;;5073027;28;20063;-76
2022/05/29 06:59:25;;;;;;;14.18;3.15;;;;;;;;;;5063147;28;20056;-77
2022/05/29 07:07:22;;;;;;;13.63;1.80;;;;;;;;;;5063489;28;20525;-78
2022/05/29 07:09:49;;;;;;;11.23;2.33;;;;;;;;;;5070057;28;20078;-79
2022/05/29 07:12:35;;;;;;;13.05;2.10;;;;;;;;;;5055784;28;20062;-79
2022/05/29 07:15:03;;;;;;;14.73;2.45;;;;;;;;;;5071267;28;20039;-77
2022/05/29 07:17:29;;;;;;;9.23;2.15;;;;;;;;;;5064790;28;20491;-79
2022/05/29 07:19:56;;;;;;;15.05;2.00;;;;;;;;;;5066988;28;20093;-78
2022/05/29 07:22:22;;;;;;;10.93;1.52;;;;;;;;;;5067783;28;20567;-78
2022/05/29 07:24:48;;;;;;;15.85;2.78;;;;;;;;;;5066582;28;20085;-78
2022/05/29 07:27:14;;;;;;;16.30;4.80;;;;;;;;;;5083023;28;20115;-78
2022/05/29 07:29:40;;;;;;;14.10;3.17;;;;;;;;;;5075839;28;20463;-75
2022/05/29 07:32:07;;;;;;;11.25;1.85;;;;;;;;;;5071617;28;20134;-76
2022/05/29 07:34:33;;;;;;;12.45;2.90;;;;;;;;;;5064726;28;20040;-78
2022/05/29 07:37:03;;;;;;;13.68;1.52;;;;;;;;;;5071121;28;20028;-77
2022/05/29 07:39:29;;;;;;;14.63;2.97;;;;;;;;;;5055837;28;20458;-76
2022/05/29 07:44:40;;;;;;;8.23;2.13;;;;;;;;;;5076422;28;20501;-76
2022/05/29 07:47:06;;;;;;;15.07;1.83;;;;;;;;;;5065102;28;20063;-76
2022/05/29 07:49:32;;;;;;;12.50;1.88;;;;;;;;;;5060383;28;20060;-77
2022/05/29 07:51:58;;;;;;;11.10;1.80;;;;;;;;;;5061549;28;20064;-76
2022/05/29 07:54:26;;;;;;;9.05;1.48;;;;;;;;;;5075344;28;20111;-76
2022/05/29 07:56:52;;;;;;;8.07;1.50;;;;;;;;;;5073219;28;20036;-76
2022/05/29 07:59:19;;;;;;;12.52;1.90;;;;;;;;;;5074379;28;20056;-77
2022/05/29 08:01:45;;;;;;;11.57;1.60;;;;;;;;;;5073885;28;20528;-77
2022/05/29 08:04:11;;;;;;;7.97;2.00;;;;;;;;;;5068409;28;20119;-77
2022/05/29 08:06:37;;;;;;;9.38;1.45;;;;;;;;;;5070178;28;20032;-76
2022/05/29 08:09:04;;;;;;;10.00;2.00;;;;;;;;;;5070727;28;20036;-77
2022/05/29 08:11:30;;;;;;;5.53;1.25;;;;;;;;;;5075123;28;20102;-77
2022/05/29 08:13:56;;;;;;;9.07;2.72;;;;;;;;;;5071528;28;20369;-76
2022/05/29 08:16:22;;;;;;;8.82;3.38;;;;;;;;;;5065306;28;20358;-75
2022/05/29 08:18:48;;;;;;;8.20;1.42;;;;;;;;;;5058397;28;20035;-77
2022/05/29 08:21:15;;;;;;;9.95;1.52;;;;;;;;;;5075559;28;20037;-77
2022/05/29 08:30:37;;;;;;;9.23;1.77;;;;;;;;;;5058925;28;20492;-77
2022/05/29 08:31:57;;;;;;;7.38;1.13;;;;;;;;;;5083721;28;20071;-76
2022/05/29 08:34:23;;;;;;;10.35;1.05;;;;;;;;;;5071127;28;20846;-76
2022/05/29 08:36:49;;;;;;;7.40;1.85;;;;;;;;;;5076716;28;20032;-76
2022/05/29 08:39:15;;;;;;;5.80;0.90;;;;;;;;;;5073945;28;20462;-76
2022/05/29 08:41:46;;;;;;;9.88;1.10;;;;;;;;;;5079630;28;20048;-76
2022/05/29 08:44:14;;;;;;;6.40;1.37;;;;;;;;;;5070464;28;20095;-76
2022/05/29 08:46:41;;;;;;;6.57;0.88;;;;;;;;;;5072684;28;20041;-75
2022/05/29 08:49:10;;;;;;;4.93;0.90;;;;;;;;;;5085712;28;20036;-76
2022/05/29 08:51:36;;;;;;;5.25;0.73;;;;;;;;;;5074725;28;20103;-76
2022/05/29 08:54:02;;;;;;;4.03;0.70;;;;;;;;;;5058308;28;20094;-76
2022/05/29 08:56:35;;;;;;;9.43;1.25;;;;;;;;;;5074258;28;20029;-76
2022/05/29 08:59:09;;;;;;;7.78;1.08;;;;;;;;;;5072974;28;20024;-76
2022/05/29 09:01:40;;;;;;;6.15;0.90;;;;;;;;;;5077457;28;20387;-76
2022/05/29 09:04:15;;;;;;;13.68;1.17;;;;;;;;;;5074621;28;20038;-76
2022/05/29 09:06:44;;;;;;;7.50;1.08;;;;;;;;;;5073806;28;20055;-75
2022/05/29 09:09:10;;;;;;;8.80;1.10;;;;;;;;;;5081702;28;20270;-76
2022/05/29 09:11:44;;;;;;;6.57;1.23;;;;;;;;;;5078235;28;20016;-76
2022/05/29 09:14:24;;;;;;;9.50;1.58;;;11.50;99.90;;;;;;5062732;28;20116;-75
2022/05/29 09:17:25;;;;;;;7.38;1.10;;;;;;;;;;5062849;28;20104;-75
2022/05/29 09:19:58;;;;;;;3.83;0.98;;;;;;;;;;5014712;28;20393;-75
2022/05/29 09:22:24;;;;;;;5.63;1.15;;;;;;;;;;5049017;28;20052;-76
2022/05/29 09:24:55;;;;;;;4.90;1.08;;;;;;;;;;5084355;28;20107;-74
2022/05/29 09:27:22;;;;;;;9.68;1.80;;;;;;;;;;5080600;28;20043;-74
2022/05/29 09:29:48;;;;;;;9.95;1.23;;;;;;;;;;5069809;28;20027;-75
2022/05/29 09:32:16;;;;;;;7.97;1.45;;;;;;;;;;5070214;28;20044;-75
2022/05/29 09:34:43;;;;;;;9.77;1.52;;;;;;;;;;5073906;28;20092;-76
2022/05/29 09:37:14;;;;;;;8.55;1.40;;;;;;;;;;5064085;28;20033;-76
2022/05/29 09:39:44;;;;;;;6.15;1.23;;;;;;;;;;5065991;28;20013;-75
2022/05/29 09:42:18;;;;;;;7.72;0.95;;;;;;;;;;5071440;28;20047;-73
2022/05/29 09:45:02;;;;;;;23.15;9.63;;;;;;;;;;5053812;28;20527;-73
2022/05/29 09:50:19;;;;;;;8.55;1.33;;;;;;;;;;5071475;28;20044;-77
2022/05/29 09:52:45;;;;;;;8.68;1.55;;;;;;;;;;5072008;28;20032;-77
2022/05/29 09:55:20;;;;;;;6.00;1.00;;;;;;;;;;5069860;28;20032;-77
2022/05/29 09:57:52;;;;;;;7.03;1.95;;;;;;;;;;5075837;28;20031;-76
2022/05/29 10:00:34;;;;;;;6.47;1.75;;;;;;;;;;5073543;28;20523;-76
2022/05/29 10:03:01;;;;;;;5.43;1.08;;;;;;;;;;5068855;28;20544;-77
2022/05/29 10:05:33;;;;;;;9.68;1.30;;;;;;;;;;5081377;28;20095;-78
2022/05/29 10:08:00;;;;;;;9.27;1.15;;;;;;;;;;5072166;28;20033;-77
2022/05/29 10:10:26;;;;;;;4.00;0.95;;;;;;;;;;5051735;28;20041;-75
2022/05/29 10:12:53;;;;;;;12.50;1.58;;;;;;;;;;5077758;28;20036;-73
2022/05/29 10:15:38;;;;;;;10.15;1.25;;;12.90;99.90;;;;;;5066163;28;20060;-73
2022/05/29 10:18:11;;;;;;;7.25;1.10;;;;;;;;;;5068475;28;20020;-74
2022/05/29 10:20:39;;;;;;;12.30;2.40;;;;;;;;;;5073567;28;20376;-74
2022/05/29 10:23:10;;;;;;;10.25;2.03;;;;;;;;;;5073569;28;20399;-74
2022/05/29 10:25:42;;;;;;;5.43;1.00;;;;;;;;;;5074112;28;20062;-74
2022/05/29 10:28:16;;;;;;;10.32;1.33;;;;;;;;;;5061847;28;20488;-74
2022/05/29 10:30:48;;;;;;;4.90;1.30;;;;;;;;;;5072303;28;20028;-74
2022/05/29 10:33:14;;;;;;;;;;;;;;;;;;5083648;28;20513;-74
2022/05/29 10:35:41;;;;;;;4.75;0.82;;;;;;;;;;5078035;28;19994;-74
2022/05/29 10:38:19;;;;;;;8.65;1.58;;;;;;;;;;5067966;28;20040;-74
2022/05/29 10:40:48;;;;;;;7.03;0.88;;;;;;;;;;5062109;28;20025;-74
2022/05/29 10:43:34;;;;;;;4.05;1.05;;;;;;;;;;5071708;28;20067;-74
2022/05/29 10:46:23;;;;;;;7.90;1.95;;;;;;;;;;5072863;28;20024;-74
2022/05/29 10:49:01;;;;;;;9.32;1.63;;;;;;;;;;5045402;28;20810;-75
2022/05/29 10:51:48;;;;;;;10.57;1.20;;;;;;;;;;5071271;28;20049;-74
2022/05/29 10:54:16;;;;;;;5.68;1.27;;;;;;;;;;5069220;28;20045;-74
2022/05/29 10:56:46;;;;;;;6.57;2.15;;;;;;;;;;5067481;28;20078;-74
2022/05/29 10:59:22;;;;;;;12.40;2.00;;;;;;;;;;5057400;28;20060;-74
2022/05/29 11:05:01;;;;;;;12.70;2.17;;;;;;;;;;5054094;28;20420;-75
2022/05/29 11:07:39;;;;;;;8.02;1.60;;;;;;;;;;5069405;28;20031;-74
2022/05/29 11:10:16;;;;;;;9.57;1.10;;;;;;;;;;5072193;28;20067;-74
2022/05/29 11:12:53;;;;;;;6.25;2.08;;;;;;;;;;5064900;28;20415;-74
2022/05/29 11:15:29;;;;;;;8.75;1.58;;;;;;;;;;5065823;28;20483;-74
2022/05/29 11:18:14;;;;;;;7.45;1.27;;;;;;;;;;5064857;28;20086;-74
2022/05/29 11:20:42;;;;;;;6.25;1.30;;;;;;;;;;5056893;28;20025;-74
2022/05/29 11:23:20;;;;;;;9.50;2.25;;;;;;;;;;5062091;28;20044;-74
2022/05/29 11:26:05;;;;;;;4.82;1.00;;;;;;;;;;5062287;28;20036;-74
2022/05/29 11:28:31;;;;;;;5.45;0.98;;;;;;;;;;5065968;28;20036;-74
2022/05/29 11:31:15;;;;;;;8.75;1.50;;;;;;;;;;5058614;28;20029;-74
2022/05/29 11:33:44;;;;;;;8.45;1.20;;;;;;;;;;5068216;28;20674;-75
2022/05/29 11:36:28;;;;;;;10.27;2.58;;;;;;;;;;5062495;28;20558;-77
2022/05/29 11:39:13;;;;;;;9.27;1.00;;;;;;;;;;5063937;28;20032;-79
2022/05/29 11:41:47;;;;;;;14.17;1.83;;;13.40;99.90;;;;;;5066403;28;20043;-78
2022/05/29 11:44:19;;;;;;;7.70;1.15;;;;;;;;;;5066982;28;20025;-77
2022/05/29 11:52:38;;;;;;;11.45;1.45;;;;;;;;;;5062076;28;20104;-78
2022/05/29 11:55:16;;;;;;;6.57;1.08;;;;;;;;;;5066504;28;20040;-76
2022/05/29 11:58:03;;;;;;;11.88;2.33;;;;;;;;;;5063937;28;23080;-74
2022/05/29 12:01:01;;;;;;;10.10;1.98;;;;;;;;;;5063279;28;20027;-76
2022/05/29 12:03:39;;;;;;;9.10;1.55;;;;;;;;;;5028974;28;20056;-74
2022/05/29 12:06:06;;;;;;;19.08;1.92;;;;;;;;;;5058767;28;20060;-74
2022/05/29 12:08:54;;;;;;;16.75;2.67;;;;;;;;;;5065012;28;20033;-75
2022/05/29 12:11:23;;;;;;;10.10;1.55;;;;;;;;;;5064135;28;20388;-74
2022/05/29 12:14:00;;;;;;;11.88;2.20;;;;;;;;;;5060530;28;20471;-77
2022/05/29 12:16:28;;;;;;;10.70;1.42;;;;;;;;;;5063958;28;20028;-77
2022/05/29 12:18:55;;;;;;;11.02;1.55;;;;;;;;;;5065700;28;20028;-75
2022/05/29 12:21:28;;;;;;;9.82;1.80;;;;;;;;;;5060868;28;20088;-74
2022/05/29 12:23:54;;;;;;;8.98;1.25;;;;;;;;;;5061605;28;20547;-75
2022/05/29 12:26:29;;;;;;;6.57;1.15;;;;;;;;;;5068491;28;20037;-75
2022/05/29 12:28:59;;;;;;;12.25;2.05;;;;;;;;;;5061478;28;20033;-75
2022/05/29 12:31:55;;;;;;;14.93;2.15;;;13.20;99.90;;;;;;5063670;28;20037;-74
2022/05/29 12:34:27;;;;;;;14.88;1.65;;;;;;;;;;5045327;28;20032;-75
2022/05/29 12:37:12;;;;;;;9.18;1.13;;;;;;;;;;5060186;28;20521;-74
2022/05/29 12:39:43;;;;;;;5.57;0.93;;;;;;;;;;5061283;28;20124;-74
2022/05/29 12:42:09;;;;;;;9.63;1.10;;;;;;;;;;5060354;28;20127;-75
2022/05/29 12:44:51;;;;;;;5.72;1.20;;;;;;;;;;5061425;28;20124;-76
2022/05/29 12:47:35;;;;;;;11.70;1.20;;;;;;;;;;5069192;28;20021;-75
2022/05/29 12:50:07;;;;;;;6.53;1.17;;;;;;;;;;5070961;28;20032;-73
2022/05/29 12:52:33;;;;;;;6.72;1.73;;;;;;;;;;5063250;28;20039;-74
2022/05/29 12:55:05;;;;;;;11.25;1.52;;;;;;;;;;5067986;28;20024;-76
2022/05/29 12:57:49;;;;;;;7.82;1.45;;;13.30;99.90;;;;;;5059496;28;20024;-75
2022/05/29 13:00:33;;;;;;;4.13;1.23;;;;;;;;;;5062626;28;20382;-75
2022/05/29 13:03:02;;;;;;;6.72;1.35;;;;;;;;;;5062279;28;20044;-75
2022/05/29 13:06:07;;;;;;;8.48;1.40;;;;;;;;;;5074000;28;20091;-75
2022/05/29 13:08:35;;;;;;;5.40;1.40;;;;;;;;;;5006329;28;20582;-75
2022/05/29 13:11:02;;;;;;;5.57;0.90;;;;;;;;;;4998151;28;20117;-75
2022/05/29 13:13:33;;;;;;;8.68;2.50;;;;;;;;;;5027921;28;20114;-74
2022/05/29 13:16:18;;;;;;;13.95;4.75;;;;;;;;;;5070631;28;20054;-74
2022/05/29 13:21:52;;;;;;;9.30;1.58;;;;;;;;;;5079441;28;20036;-76
2022/05/29 13:24:18;;;;;;;7.50;1.33;;;;;;;;;;5074329;28;20173;-76
2022/05/29 13:26:44;;;;;;;9.43;2.25;;;;;;;;;;5083143;28;20120;-75
2022/05/29 13:29:30;;;;;;;9.65;1.65;;;;;;;;;;5066876;28;20040;-75
2022/05/29 13:32:14;;;;;;;6.93;1.40;;;;;;;;;;5069541;28;20425;-74
2022/05/29 13:34:52;;;;;;;9.40;1.35;;;13.60;99.90;;;;;;5058367;28;20032;-75
2022/05/29 13:37:22;;;;;;;12.57;2.25;;;;;;;;;;5077247;28;20029;-75
2022/05/29 13:39:52;;;;;;;6.22;1.52;;;;;;;;;;5072410;28;20071;-75
2022/05/29 13:42:29;;;;;;;9.30;1.35;;;13.50;99.90;;;;;;5058482;28;20450;-75
2022/05/29 13:44:56;;;;;;;12.55;2.15;;;;;;;;;;5083073;28;20059;-75
2022/05/29 13:47:22;;;;;;;8.50;1.33;;;;;;;;;;5070832;28;20039;-75
2022/05/29 13:49:48;;;;;;;14.95;2.42;;;;;;;;;;5080357;28;20032;-75
2022/05/29 13:52:26;;;;;;;19.77;2.17;;;;;;;;;;5087509;28;20464;-75
2022/05/29 13:55:19;;;;;;;12.23;1.80;;;;;;;;;;5056636;28;20032;-75
2022/05/29 14:04:03;;;;;;;15.23;4.13;;;;;;;;;;5057437;28;20040;-76
2022/05/29 14:06:35;;;;;;;9.70;2.10;;;;;;;;;;5059155;28;20526;-76
2022/05/29 14:09:09;;;;;;;8.90;1.20;;;13.00;99.90;;;;;;5059239;28;20378;-74
2022/05/29 14:11:43;;;;;;;5.35;1.52;;;;;;;;;;5058816;28;20079;-75
2022/05/29 14:14:28;;;;;;;9.77;1.70;;;;;;;;;;5071953;28;20032;-75
2022/05/29 14:16:56;;;;;;;9.52;1.48;;;;;;;;;;5083922;28;20049;-75
2022/05/29 14:19:45;;;;;;;13.23;2.17;;;;;;;;;;5070780;28;20031;-75
2022/05/29 14:22:14;;;;;;;10.07;1.60;;;;;;;;;;5062522;28;20024;-77
2022/05/29 14:24:40;;;;;;;6.70;1.27;;;;;;;;;;5071756;28;20120;-77
2022/05/29 14:27:14;;;;;;;7.90;1.60;;;;;;;;;;5071888;28;20067;-77
2022/05/29 14:29:43;;;;;;;11.70;2.00;;;;;;;;;;5076771;28;20527;-77
2022/05/29 14:32:09;;;;;;;20.73;6.32;;;;;;;;;;5060248;28;20033;-74
2022/05/29 14:34:46;;;;;;;15.80;4.72;;;;;;;;;;5072233;28;20024;-74
2022/05/29 14:37:15;;;;;;;17.73;2.17;;;;;;;;;;5083195;28;20485;-75
2022/05/29 14:39:50;;;;;;;11.25;1.85;;;;;;;;;;5076554;28;20482;-75
2022/05/29 14:42:31;;;;;;;15.50;1.88;;;;;;;;;;5087200;28;20115;-75
2022/05/29 14:45:07;;;;;;;9.52;1.52;;;;;;;;;;5078173;28;20028;-76
2022/05/29 14:47:40;;;;;;;10.30;1.70;;;;;;;;;;5065151;28;20043;-77
2022/05/29 14:50:17;;;;;;;14.68;1.75;;;;;;;;;;5073779;28;20052;-76
2022/05/29 14:52:55;;;;;;;13.75;3.05;;;;;;;;;;5090202;28;20047;-76
2022/05/29 14:55:26;;;;;;;7.13;1.33;;;;;;;;;;5078555;28;20021;-76
2022/05/29 14:57:57;;;;;;;16.05;2.40;;;;;;;;;;5041638;28;20036;-76
2022/05/29 15:00:38;;;;;;;13.82;1.70;;;;;;;;;;5076207;28;20499;-75
2022/05/29 15:03:10;;;;;;;11.70;1.58;;;;;;;;;;5071543;28;20032;-75
2022/05/29 15:05:37;;;;;;;11.15;1.80;;;;;;;;;;5071874;28;20064;-76
2022/05/29 15:10:59;;;;;;;14.35;2.35;;;;;;;;;;5077983;28;20047;-75
2022/05/29 15:13:32;;;;;;;11.10;1.92;;;;;;;;;;5063110;28;20037;-76
2022/05/29 15:15:59;;;;;;;10.15;1.60;;;;;;;;;;5061729;28;20260;-77
2022/05/29 15:18:28;;;;;;;16.15;2.50;;;13.20;99.90;;;;;;5066393;28;20112;-73
2022/05/29 15:26:35;;;;;;;40.30;23.08;;;;;;;;;;5053669;28;20142;-76
2022/05/29 15:29:01;;;;;;;14.45;2.40;;;;;;;;;;5070290;28;20153;-76
2022/05/29 15:31:32;;;;;;;10.60;1.77;;;;;;;;;;5067267;28;20028;-75
2022/05/29 15:33:58;;;;;;;8.35;1.63;;;;;;;;;;5069356;28;20036;-77
2022/05/29 15:36:44;;;;;;;7.63;2.20;;;;;;;;;;5070769;28;20037;-76
2022/05/29 15:39:15;;;;;;;15.88;1.88;;;;;;;;;;5031203;28;20043;-76
2022/05/29 15:41:41;;;;;;;18.63;1.88;;;;;;;;;;5086029;28;20036;-76
2022/05/29 15:44:07;;;;;;;9.52;2.30;;;;;;;;;;5069646;28;20404;-75
2022/05/29 15:46:36;;;;;;;12.23;1.88;;;;;;;;;;5073578;28;20036;-75